createdAt,value
2023-05-19T00:00:24.998Z,53.44
2023-05-19T00:01:28.464Z,53.29
2023-05-19T00:02:33.948Z,53.77
2023-05-19T00:03:40.814Z,53.77
2023-05-19T00:04:43.411Z,53.53
2023-05-19T00:05:46.358Z,53.63
2023-05-19T00:06:52.052Z,53.96
2023-05-19T00:07:58.203Z,54.14
2023-05-19T00:09:02.787Z,54.29
2023-05-19T00:10:06.009Z,54.64
2023-05-19T00:11:08.589Z,55.21
2023-05-19T00:12:11.644Z,55.28
2023-05-19T00:13:13.951Z,55.80
2023-05-19T00:14:16.213Z,55.00
2023-05-19T00:15:18.795Z,54.88
2023-05-19T00:16:22.099Z,55.02
2023-05-19T00:17:24.941Z,55.34
2023-05-19T00:18:29.975Z,55.16
2023-05-19T00:19:32.553Z,55.15
2023-05-19T00:20:34.797Z,55.37
2023-05-19T00:21:38.670Z,54.22
2023-05-19T00:22:40.752Z,54.62
2023-05-19T00:23:42.880Z,53.99
2023-05-19T00:24:44.917Z,54.06
2023-05-19T00:25:47.056Z,53.89
2023-05-19T00:26:49.263Z,55.51
2023-05-19T00:27:51.755Z,53.42
2023-05-19T00:28:54.359Z,53.58
2023-05-19T00:29:56.936Z,53.61
2023-05-19T00:30:58.962Z,54.31
2023-05-19T00:32:01.171Z,54.34
2023-05-19T00:33:03.181Z,53.68
2023-05-19T00:34:05.357Z,53.98
2023-05-19T00:35:07.825Z,51.58
2023-05-19T00:36:10.114Z,50.89
2023-05-19T00:37:12.111Z,51.24
2023-05-19T00:38:14.217Z,48.78
2023-05-19T00:39:16.606Z,49.28
2023-05-19T00:41:49.013Z,47.70
2023-05-19T00:42:51.219Z,50.06
2023-05-19T00:43:53.321Z,48.15
2023-05-19T00:44:55.528Z,51.12
2023-05-19T00:45:58.150Z,50.64
2023-05-19T00:47:01.302Z,51.01
2023-05-19T00:48:03.412Z,51.45
2023-05-19T00:49:05.663Z,51.71
2023-05-19T00:50:07.917Z,51.96
2023-05-19T00:51:10.567Z,52.17
2023-05-19T00:52:12.812Z,52.49
2023-05-19T00:53:16.938Z,52.68
2023-05-19T00:54:20.032Z,53.18
2023-05-19T00:55:24.644Z,53.21
2023-05-19T00:56:27.265Z,53.46
2023-05-19T00:57:29.617Z,53.66
2023-05-19T00:58:33.503Z,53.85
2023-05-19T00:59:35.978Z,53.89
2023-05-19T01:00:39.835Z,53.71
2023-05-19T01:01:42.231Z,54.04
2023-05-19T01:02:44.657Z,54.30
2023-05-19T01:03:48.258Z,54.34
2023-05-19T01:04:51.669Z,54.57
2023-05-19T01:05:53.916Z,54.59
2023-05-19T01:06:56.886Z,54.44
2023-05-19T01:07:59.417Z,54.30
2023-05-19T01:09:01.440Z,54.68
2023-05-19T01:10:04.501Z,54.64
2023-05-19T01:11:07.236Z,54.80
2023-05-19T01:12:09.793Z,54.62
2023-05-19T01:13:12.239Z,54.73
2023-05-19T01:14:15.221Z,55.01
2023-05-19T01:15:17.332Z,54.82
2023-05-19T01:16:30.998Z,54.87
2023-05-19T01:17:42.624Z,54.58
2023-05-19T01:19:12.542Z,54.61
2023-05-19T01:20:26.159Z,54.76
2023-05-19T01:21:36.569Z,54.76
2023-05-19T01:23:02.803Z,54.03
2023-05-19T01:24:50.185Z,53.67
2023-05-19T01:26:37.234Z,53.44
2023-05-19T01:27:59.264Z,53.41
2023-05-19T01:29:26.897Z,53.34
2023-05-19T01:30:40.856Z,52.92
2023-05-19T01:31:44.716Z,52.72
2023-05-19T01:32:48.362Z,51.73
2023-05-19T01:33:53.275Z,52.68
2023-05-19T01:34:57.341Z,52.90
2023-05-19T01:36:03.306Z,53.13
2023-05-19T01:37:06.026Z,53.56
2023-05-19T01:38:10.046Z,53.51
2023-05-19T01:39:13.366Z,53.17
2023-05-19T01:40:16.102Z,53.32
2023-05-19T01:41:22.140Z,53.05
2023-05-19T01:42:25.569Z,52.46
2023-05-19T01:43:28.656Z,52.27
2023-05-19T01:44:32.917Z,52.31
2023-05-19T01:45:36.187Z,52.26
2023-05-19T01:46:39.009Z,52.11
2023-05-19T01:47:44.052Z,51.99
2023-05-19T01:48:47.627Z,51.93
2023-05-19T01:49:49.788Z,51.96
2023-05-19T01:50:52.314Z,51.69
2023-05-19T01:51:54.620Z,51.51
2023-05-19T01:52:56.943Z,51.32
2023-05-19T01:53:59.213Z,51.26
2023-05-19T01:55:01.916Z,50.84
2023-05-19T01:56:06.181Z,50.43
2023-05-19T01:57:40.804Z,50.11
2023-05-19T01:58:48.545Z,49.68
2023-05-19T02:00:20.550Z,49.53
2023-05-19T02:01:35.284Z,48.83
2023-05-19T02:02:58.584Z,49.00
2023-05-19T02:04:16.394Z,49.15
2023-05-19T02:05:34.656Z,48.89
2023-05-19T02:07:06.058Z,49.12
2023-05-19T02:08:21.260Z,48.86
2023-05-19T02:09:31.900Z,48.88
2023-05-19T02:10:41.187Z,48.25
2023-05-19T02:12:18.690Z,48.21
2023-05-19T02:13:23.780Z,47.99
2023-05-19T02:14:34.268Z,48.23
2023-05-19T02:15:42.346Z,50.06
2023-05-19T02:16:48.589Z,50.77
2023-05-19T02:17:54.610Z,50.75
2023-05-19T02:19:34.764Z,51.08
2023-05-19T02:20:36.819Z,50.78
2023-05-19T02:21:38.866Z,50.45
2023-05-19T02:22:41.742Z,50.60
2023-05-19T02:23:43.789Z,50.30
2023-05-19T02:24:48.040Z,50.84
2023-05-19T02:25:50.125Z,51.14
2023-05-19T02:26:53.881Z,51.06
2023-05-19T02:27:56.093Z,51.53
2023-05-19T02:28:58.405Z,51.29
2023-05-19T02:30:10.076Z,50.05
2023-05-19T02:31:12.858Z,50.72
2023-05-19T02:32:15.380Z,50.81
2023-05-19T02:33:19.502Z,50.82
2023-05-19T02:34:21.496Z,50.86
2023-05-19T02:35:23.698Z,50.33
2023-05-19T02:36:26.795Z,50.27
2023-05-19T02:37:29.472Z,49.90
2023-05-19T02:38:31.852Z,49.44
2023-05-19T02:39:35.461Z,49.13
2023-05-19T02:40:37.807Z,49.40
2023-05-19T02:41:40.052Z,49.22
2023-05-19T02:42:42.013Z,48.52
2023-05-19T02:43:44.115Z,47.98
2023-05-19T02:44:46.462Z,47.06
2023-05-19T02:45:48.738Z,46.48
2023-05-19T02:46:51.045Z,45.96
2023-05-19T02:47:53.183Z,44.15
2023-05-19T02:48:55.857Z,44.36
2023-05-19T02:49:58.000Z,43.96
2023-05-19T02:51:00.033Z,43.56
2023-05-19T02:52:03.541Z,42.79
2023-05-19T02:53:05.623Z,42.39
2023-05-19T02:54:07.819Z,40.25
2023-05-19T02:55:10.246Z,39.81
2023-05-19T02:56:12.479Z,40.07
2023-05-19T02:57:14.476Z,39.38
2023-05-19T02:58:16.579Z,39.45
2023-05-19T02:59:18.646Z,38.50
2023-05-19T03:00:20.897Z,38.41
2023-05-19T03:01:23.439Z,37.74
2023-05-19T03:02:25.927Z,36.77
2023-05-19T03:03:28.931Z,37.32
2023-05-19T03:04:31.321Z,37.40
2023-05-19T03:05:33.445Z,37.20
2023-05-19T03:06:36.670Z,37.33
2023-05-19T03:07:38.855Z,37.61
2023-05-19T03:08:42.456Z,37.71
2023-05-19T03:09:44.583Z,36.33
2023-05-19T03:10:47.195Z,36.04
2023-05-19T03:11:49.222Z,36.21
2023-05-19T03:12:51.470Z,35.15
2023-05-19T03:13:53.478Z,34.89
2023-05-19T03:14:55.836Z,34.77
2023-05-19T03:15:59.455Z,34.40
2023-05-19T03:17:01.910Z,35.40
2023-05-19T03:18:04.220Z,33.94
2023-05-19T03:19:06.405Z,33.40
2023-05-19T03:20:09.023Z,32.57
2023-05-19T03:21:11.267Z,32.41
2023-05-19T03:22:13.304Z,32.74
2023-05-19T03:23:15.577Z,32.56
2023-05-19T03:24:18.269Z,32.50
2023-05-19T03:25:20.545Z,32.67
2023-05-19T03:26:23.456Z,32.25
2023-05-19T03:27:26.144Z,32.35
2023-05-19T03:28:28.231Z,32.13
2023-05-19T03:29:30.412Z,32.02
2023-05-19T03:30:32.768Z,32.29
2023-05-19T03:31:35.132Z,32.43
2023-05-19T03:32:40.394Z,32.89
2023-05-19T03:33:42.674Z,33.27
2023-05-19T03:34:44.922Z,33.58
2023-05-19T03:35:47.021Z,33.75
2023-05-19T03:36:50.518Z,32.83
2023-05-19T03:37:52.990Z,33.18
2023-05-19T03:38:55.161Z,33.02
2023-05-19T03:39:57.736Z,32.79
2023-05-19T03:40:59.816Z,33.13
2023-05-19T03:42:01.994Z,32.48
2023-05-19T03:43:04.172Z,32.41
2023-05-19T03:44:06.348Z,32.48
2023-05-19T03:45:09.006Z,32.31
2023-05-19T03:46:11.207Z,31.96
2023-05-19T03:47:13.247Z,31.79
2023-05-19T03:48:17.110Z,31.78
2023-05-19T03:49:20.795Z,31.16
2023-05-19T03:50:23.169Z,31.41
2023-05-19T03:51:25.258Z,31.19
2023-05-19T03:52:27.405Z,30.68
2023-05-19T03:53:30.568Z,30.97
2023-05-19T03:54:32.788Z,30.45
2023-05-19T03:55:34.834Z,30.72
2023-05-19T03:56:39.873Z,30.41
2023-05-19T03:57:43.541Z,30.75
2023-05-19T03:58:47.290Z,30.20
2023-05-19T03:59:49.389Z,30.00
2023-05-19T04:00:51.630Z,30.51
2023-05-19T04:01:53.782Z,30.35
2023-05-19T04:02:56.177Z,30.02
2023-05-19T04:03:58.425Z,29.94
2023-05-19T04:05:00.888Z,30.14
2023-05-19T04:06:03.489Z,29.92
2023-05-19T04:07:05.778Z,30.15
2023-05-19T04:08:07.867Z,29.82
2023-05-19T04:09:14.526Z,29.29
2023-05-19T04:10:16.590Z,30.10
2023-05-19T04:11:20.380Z,29.75
2023-05-19T04:12:22.227Z,28.46
2023-05-19T04:13:24.330Z,28.77
2023-05-19T04:14:26.518Z,29.26
2023-05-19T04:15:29.006Z,28.79
2023-05-19T04:16:31.566Z,28.86
2023-05-19T04:17:33.654Z,30.24
2023-05-19T04:18:35.842Z,29.16
2023-05-19T04:19:37.975Z,29.15
2023-05-19T04:20:40.061Z,28.86
2023-05-19T04:21:42.167Z,29.29
2023-05-19T04:22:44.512Z,32.99
2023-05-19T04:23:46.526Z,30.48
2023-05-19T04:24:49.266Z,30.17
2023-05-19T04:25:51.491Z,30.22
2023-05-19T04:26:53.947Z,29.78
2023-05-19T04:27:57.948Z,29.14
2023-05-19T04:29:00.798Z,29.57
2023-05-19T04:30:03.934Z,28.68
2023-05-19T04:31:13.041Z,28.89
2023-05-19T04:32:18.049Z,28.44
2023-05-19T04:33:21.284Z,28.29
2023-05-19T04:34:23.537Z,28.41
2023-05-19T04:35:25.714Z,28.69
2023-05-19T04:36:27.873Z,29.19
2023-05-19T04:37:30.250Z,29.33
2023-05-19T04:38:32.443Z,28.71
2023-05-19T04:39:34.562Z,28.83
2023-05-19T04:40:37.284Z,28.42
2023-05-19T04:41:42.249Z,29.15
2023-05-19T04:42:46.200Z,28.34
2023-05-19T04:43:48.625Z,28.14
2023-05-19T04:44:52.033Z,29.04
2023-05-19T04:45:55.066Z,28.79
2023-05-19T04:46:58.616Z,28.62
2023-05-19T04:48:00.771Z,28.58
2023-05-19T04:49:03.356Z,29.28
2023-05-19T04:50:05.925Z,27.83
2023-05-19T04:51:08.008Z,28.10
2023-05-19T04:52:11.806Z,28.43
2023-05-19T04:53:13.841Z,28.25
2023-05-19T04:54:15.975Z,29.44
2023-05-19T04:55:18.003Z,28.90
2023-05-19T04:56:19.990Z,29.81
2023-05-19T04:57:22.188Z,29.35
2023-05-19T04:58:27.631Z,29.80
2023-05-19T04:59:29.734Z,29.42
2023-05-19T05:00:36.049Z,29.35
2023-05-19T05:01:41.298Z,30.12
2023-05-19T05:02:43.801Z,30.00
2023-05-19T05:03:46.236Z,29.53
2023-05-19T05:04:48.399Z,29.35
2023-05-19T05:05:50.847Z,29.27
2023-05-19T05:06:52.888Z,29.60
2023-05-19T05:07:55.049Z,29.58
2023-05-19T05:08:57.196Z,29.70
2023-05-19T05:09:59.283Z,29.51
2023-05-19T05:11:01.629Z,29.89
2023-05-19T05:12:04.023Z,28.89
2023-05-19T05:13:06.461Z,29.38
2023-05-19T05:14:09.194Z,29.28
2023-05-19T05:15:11.789Z,28.99
2023-05-19T05:16:14.605Z,29.58
2023-05-19T05:17:17.241Z,29.34
2023-05-19T05:18:19.716Z,29.46
2023-05-19T05:19:31.190Z,29.21
2023-05-19T05:20:33.854Z,30.05
2023-05-19T05:21:36.285Z,29.84
2023-05-19T05:22:42.272Z,30.14
2023-05-19T05:23:44.441Z,30.35
2023-05-19T05:24:47.096Z,30.80
2023-05-19T05:25:49.413Z,30.21
2023-05-19T05:26:52.099Z,29.75
2023-05-19T05:27:54.256Z,29.77
2023-05-19T05:28:56.598Z,30.46
2023-05-19T05:29:59.283Z,30.62
2023-05-19T05:31:01.640Z,30.20
2023-05-19T05:32:03.831Z,29.89
2023-05-19T05:33:06.607Z,30.17
2023-05-19T05:34:08.891Z,30.22
2023-05-19T05:35:11.171Z,30.47
2023-05-19T05:36:13.856Z,30.27
2023-05-19T05:37:15.931Z,30.67
2023-05-19T05:38:18.026Z,30.26
2023-05-19T05:39:20.126Z,30.49
2023-05-19T05:40:22.120Z,30.80
2023-05-19T05:41:24.188Z,30.86
2023-05-19T05:42:28.204Z,31.05
2023-05-19T05:43:31.828Z,30.78
2023-05-19T05:44:35.841Z,31.04
2023-05-19T05:45:38.197Z,30.55
2023-05-19T05:46:40.519Z,30.42
2023-05-19T05:47:42.965Z,30.20
2023-05-19T05:48:45.698Z,30.39
2023-05-19T05:49:48.843Z,30.03
2023-05-19T05:50:52.230Z,29.94
2023-05-19T05:53:05.307Z,30.63
2023-05-19T05:54:08.146Z,30.94
2023-05-19T05:55:11.101Z,31.26
2023-05-19T05:56:13.929Z,31.09
2023-05-19T05:57:16.275Z,30.95
2023-05-19T05:58:18.345Z,31.29
2023-05-19T05:59:20.641Z,31.43
2023-05-19T06:00:22.968Z,31.22
2023-05-19T06:01:25.030Z,30.39
2023-05-19T06:02:28.491Z,29.54
2023-05-19T06:03:32.261Z,30.00
2023-05-19T06:04:34.275Z,30.52
2023-05-19T06:05:36.396Z,30.61
2023-05-19T06:06:39.227Z,30.76
2023-05-19T06:07:41.548Z,30.08
2023-05-19T06:08:43.712Z,30.35
2023-05-19T06:09:46.131Z,31.00
2023-05-19T06:10:48.295Z,30.78
2023-05-19T06:11:50.319Z,31.78
2023-05-19T06:12:52.527Z,31.63
2023-05-19T06:13:54.629Z,32.21
2023-05-19T06:14:56.960Z,31.90
2023-05-19T06:16:00.556Z,31.84
2023-05-19T06:17:04.131Z,31.83
2023-05-19T06:18:06.424Z,31.38
2023-05-19T06:19:08.899Z,30.88
2023-05-19T06:20:11.847Z,31.41
2023-05-19T06:21:14.166Z,31.32
2023-05-19T06:22:16.282Z,31.60
2023-05-19T06:23:18.361Z,31.06
2023-05-19T06:24:20.457Z,31.09
2023-05-19T06:25:23.026Z,31.15
2023-05-19T06:26:25.037Z,30.93
2023-05-19T06:27:27.070Z,31.10
2023-05-19T06:28:29.192Z,31.56
2023-05-19T06:29:31.276Z,31.10
2023-05-19T06:30:33.425Z,31.04
2023-05-19T06:31:35.792Z,30.75
2023-05-19T06:32:37.980Z,30.62
2023-05-19T06:33:40.021Z,31.43
2023-05-19T06:34:42.238Z,31.41
2023-05-19T06:35:44.214Z,30.89
2023-05-19T06:36:46.270Z,30.28
2023-05-19T06:37:48.340Z,30.65
2023-05-19T06:38:50.598Z,31.09
2023-05-19T06:39:53.896Z,31.55
2023-05-19T06:40:56.040Z,31.10
2023-05-19T06:41:58.152Z,30.47
2023-05-19T06:43:00.140Z,30.50
2023-05-19T06:44:03.821Z,30.45
2023-05-19T06:45:06.455Z,31.08
2023-05-19T06:46:10.892Z,31.33
2023-05-19T06:47:13.011Z,31.62
2023-05-19T06:48:15.310Z,30.76
2023-05-19T06:49:17.455Z,31.40
2023-05-19T06:50:19.506Z,31.79
2023-05-19T06:51:22.537Z,32.45
2023-05-19T06:52:25.078Z,31.82
2023-05-19T06:53:27.071Z,32.01
2023-05-19T06:54:29.302Z,32.97
2023-05-19T06:55:32.362Z,33.15
2023-05-19T06:56:34.644Z,33.26
2023-05-19T06:57:36.678Z,32.79
2023-05-19T06:58:39.668Z,32.41
2023-05-19T06:59:43.629Z,31.85
2023-05-19T07:00:45.715Z,32.25
2023-05-19T07:01:47.853Z,32.28
2023-05-19T07:02:50.046Z,32.03
2023-05-19T07:03:52.366Z,32.56
2023-05-19T07:04:54.765Z,33.08
2023-05-19T07:05:56.993Z,33.41
2023-05-19T07:06:59.138Z,32.85
2023-05-19T07:08:01.864Z,33.11
2023-05-19T07:09:05.819Z,33.11
2023-05-19T07:10:09.590Z,33.31
2023-05-19T07:11:12.592Z,32.00
2023-05-19T07:12:14.613Z,31.47
2023-05-19T07:13:16.967Z,31.98
2023-05-19T07:14:19.061Z,31.68
2023-05-19T07:15:21.161Z,32.19
2023-05-19T07:16:23.289Z,31.78
2023-05-19T07:17:25.605Z,31.31
2023-05-19T07:18:27.696Z,31.55
2023-05-19T07:19:29.969Z,31.52
2023-05-19T07:20:32.278Z,31.42
2023-05-19T07:21:34.688Z,31.59
2023-05-19T07:22:38.704Z,31.72
2023-05-19T07:23:40.833Z,32.09
2023-05-19T07:24:42.797Z,31.37
2023-05-19T07:25:44.950Z,30.75
2023-05-19T07:26:47.112Z,30.47
2023-05-19T07:27:49.303Z,30.76
2023-05-19T07:28:52.175Z,30.86
2023-05-19T07:29:54.607Z,30.86
2023-05-19T07:30:56.716Z,30.56
2023-05-19T07:31:59.035Z,30.46
2023-05-19T07:33:01.006Z,30.69
2023-05-19T07:34:03.793Z,29.74
2023-05-19T07:35:06.814Z,29.40
2023-05-19T07:36:09.238Z,29.80
2023-05-19T07:37:11.270Z,29.90
2023-05-19T07:38:13.418Z,29.90
2023-05-19T07:39:15.695Z,29.46
2023-05-19T07:40:17.881Z,29.06
2023-05-19T07:41:19.988Z,29.46
2023-05-19T07:42:22.248Z,29.18
2023-05-19T07:43:24.409Z,29.04
2023-05-19T07:44:27.353Z,29.06
2023-05-19T07:45:29.606Z,29.32
2023-05-19T07:46:31.879Z,28.90
2023-05-19T07:47:34.089Z,28.79
2023-05-19T07:48:36.330Z,28.78
2023-05-19T07:49:38.371Z,29.06
2023-05-19T07:50:40.478Z,28.98
2023-05-19T07:51:42.524Z,28.79
2023-05-19T07:52:44.818Z,28.47
2023-05-19T07:53:47.428Z,28.48
2023-05-19T07:54:49.521Z,28.45
2023-05-19T07:55:51.548Z,29.23
2023-05-19T07:56:53.963Z,28.99
2023-05-19T07:57:56.453Z,29.22
2023-05-19T07:58:58.788Z,28.41
2023-05-19T08:00:01.238Z,28.75
2023-05-19T08:01:05.054Z,28.35
2023-05-19T08:02:07.915Z,28.24
2023-05-19T08:03:10.860Z,27.84
2023-05-19T08:04:13.790Z,28.06
2023-05-19T08:05:16.007Z,27.80
2023-05-19T08:06:18.024Z,28.09
2023-05-19T08:07:20.672Z,27.42
2023-05-19T08:08:22.887Z,27.29
2023-05-19T08:09:25.027Z,27.32
2023-05-19T08:10:27.141Z,27.31
2023-05-19T08:11:29.281Z,27.77
2023-05-19T08:12:31.565Z,27.47
2023-05-19T08:13:34.949Z,27.96
2023-05-19T08:14:37.615Z,27.74
2023-05-19T08:15:40.304Z,27.55
2023-05-19T08:16:43.200Z,28.06
2023-05-19T08:17:45.748Z,27.82
2023-05-19T08:18:47.999Z,27.81
2023-05-19T08:19:50.087Z,27.76
2023-05-19T08:20:52.359Z,27.32
2023-05-19T08:21:54.454Z,27.88
2023-05-19T08:22:56.477Z,27.87
2023-05-19T08:23:58.746Z,27.02
2023-05-19T08:25:01.738Z,27.04
2023-05-19T08:26:06.201Z,27.33
2023-05-19T08:27:08.204Z,27.67
2023-05-19T08:28:10.446Z,27.18
2023-05-19T08:29:12.535Z,27.65
2023-05-19T08:30:14.929Z,27.67
2023-05-19T08:31:18.573Z,27.75
2023-05-19T08:32:20.530Z,27.43
2023-05-19T08:33:23.040Z,26.79
2023-05-19T08:34:25.351Z,26.75
2023-05-19T08:35:28.119Z,26.70
2023-05-19T08:36:31.026Z,26.53
2023-05-19T08:37:34.190Z,26.23
2023-05-19T08:38:36.416Z,26.14
2023-05-19T08:39:38.447Z,26.33
2023-05-19T08:40:46.913Z,26.98
2023-05-19T08:41:49.063Z,26.39
2023-05-19T08:42:51.500Z,26.39
2023-05-19T08:43:53.616Z,26.08
2023-05-19T08:44:56.094Z,26.38
2023-05-19T08:46:00.295Z,26.05
2023-05-19T08:47:05.443Z,26.15
2023-05-19T08:48:08.670Z,25.94
2023-05-19T08:49:13.844Z,26.23
2023-05-19T08:50:21.560Z,26.08
2023-05-19T08:51:51.009Z,26.22
2023-05-19T08:52:58.032Z,25.98
2023-05-19T08:54:12.980Z,25.37
2023-05-19T08:55:34.320Z,25.33
2023-05-19T08:56:37.956Z,24.18
2023-05-19T08:57:41.075Z,23.83
2023-05-19T08:58:44.983Z,23.51
2023-05-19T08:59:49.145Z,23.45
2023-05-19T09:00:52.513Z,24.03
2023-05-19T09:01:55.547Z,24.04
2023-05-19T09:03:05.973Z,23.86
2023-05-19T09:04:14.783Z,24.10
2023-05-19T09:05:20.221Z,23.77
2023-05-19T09:06:22.363Z,24.17
2023-05-19T09:07:26.356Z,24.25
2023-05-19T09:08:28.607Z,23.74
2023-05-19T09:09:30.901Z,24.52
2023-05-19T09:10:33.036Z,24.38
2023-05-19T09:11:37.714Z,24.27
2023-05-19T09:12:40.091Z,24.46
2023-05-19T09:13:42.398Z,24.15
2023-05-19T09:14:44.538Z,24.48
2023-05-19T09:15:48.936Z,24.51
2023-05-19T09:16:53.197Z,23.79
2023-05-19T09:18:12.069Z,23.96
2023-05-19T09:19:17.476Z,23.24
2023-05-19T09:20:19.824Z,23.30
2023-05-19T09:21:34.163Z,23.88
2023-05-19T09:22:41.893Z,23.94
2023-05-19T09:23:47.795Z,24.01
2023-05-19T09:24:50.216Z,24.13
2023-05-19T09:25:54.151Z,24.45
2023-05-19T09:26:58.520Z,24.33
2023-05-19T09:28:01.989Z,24.27
2023-05-19T09:29:14.908Z,24.58
2023-05-19T09:30:20.816Z,24.39
2023-05-19T09:31:23.666Z,23.66
2023-05-19T09:32:29.515Z,23.92
2023-05-19T09:33:34.234Z,24.10
2023-05-19T09:34:42.396Z,23.70
2023-05-19T09:35:47.819Z,22.92
2023-05-19T09:36:52.114Z,23.29
2023-05-19T09:37:55.394Z,23.15
2023-05-19T09:38:57.605Z,22.81
2023-05-19T09:40:00.569Z,23.02
2023-05-19T09:41:03.434Z,23.35
2023-05-19T09:42:07.672Z,23.47
2023-05-19T09:43:10.305Z,23.08
2023-05-19T09:44:21.461Z,22.95
2023-05-19T09:45:23.517Z,23.23
2023-05-19T09:46:30.257Z,23.30
2023-05-19T09:47:40.258Z,22.90
2023-05-19T09:48:42.759Z,23.41
2023-05-19T09:49:48.019Z,23.94
2023-05-19T09:50:51.920Z,23.56
2023-05-19T09:51:57.539Z,22.94
2023-05-19T09:53:00.466Z,23.26
2023-05-19T09:54:03.073Z,23.00
2023-05-19T09:55:13.640Z,23.29
2023-05-19T09:56:23.936Z,22.99
2023-05-19T09:57:29.736Z,23.08
2023-05-19T09:58:35.698Z,23.36
2023-05-19T09:59:39.392Z,22.49
2023-05-19T10:00:41.615Z,22.64
2023-05-19T10:01:46.720Z,22.86
2023-05-19T10:02:51.022Z,23.36
2023-05-19T10:03:53.929Z,23.40
2023-05-19T10:04:56.358Z,23.02
2023-05-19T10:06:01.276Z,22.80
2023-05-19T10:07:06.097Z,23.30
2023-05-19T10:08:10.607Z,22.94
2023-05-19T10:09:13.912Z,23.29
2023-05-19T10:10:16.291Z,23.05
2023-05-19T10:11:18.838Z,23.31
2023-05-19T10:12:21.493Z,23.20
2023-05-19T10:13:24.636Z,23.36
2023-05-19T10:14:28.811Z,23.70
2023-05-19T10:15:32.999Z,23.62
2023-05-19T10:16:36.595Z,23.10
2023-05-19T10:17:40.857Z,23.18
2023-05-19T10:18:43.490Z,23.38
2023-05-19T10:19:46.302Z,23.33
2023-05-19T10:20:50.510Z,23.29
2023-05-19T10:21:53.559Z,23.65
2023-05-19T10:22:55.965Z,23.20
2023-05-19T10:23:58.244Z,23.35
2023-05-19T10:25:00.542Z,23.47
2023-05-19T10:26:06.838Z,23.35
2023-05-19T10:27:14.478Z,23.56
2023-05-19T10:28:20.722Z,22.82
2023-05-19T10:29:28.313Z,23.19
2023-05-19T10:30:34.936Z,22.96
2023-05-19T10:31:40.423Z,22.35
2023-05-19T10:32:45.208Z,22.25
2023-05-19T10:34:10.373Z,22.55
2023-05-19T10:35:50.876Z,22.34
2023-05-19T10:37:17.368Z,22.59
2023-05-19T10:38:47.337Z,22.88
2023-05-19T10:39:51.590Z,23.08
2023-05-19T10:41:03.290Z,22.92
2023-05-19T10:42:38.376Z,23.37
2023-05-19T10:43:43.180Z,23.96
2023-05-19T10:45:22.534Z,23.26
2023-05-19T10:46:27.512Z,23.29
2023-05-19T10:47:30.501Z,22.67
2023-05-19T10:48:38.617Z,22.44
2023-05-19T10:49:41.101Z,22.37
2023-05-19T10:50:47.193Z,22.48
2023-05-19T10:51:50.182Z,22.11
2023-05-19T10:52:56.822Z,22.56
2023-05-19T10:54:02.967Z,22.92
2023-05-19T10:55:08.872Z,23.38
2023-05-19T10:56:10.949Z,22.79
2023-05-19T10:57:17.237Z,22.18
2023-05-19T10:58:42.254Z,22.11
2023-05-19T10:59:45.188Z,22.20
2023-05-19T11:00:47.723Z,22.32
2023-05-19T11:01:49.873Z,22.14
2023-05-19T11:02:56.478Z,22.92
2023-05-19T11:04:04.703Z,22.45
2023-05-19T11:05:16.956Z,22.48
2023-05-19T11:06:20.566Z,23.00
2023-05-19T11:07:22.682Z,22.98
2023-05-19T11:08:35.288Z,22.79
2023-05-19T11:09:43.374Z,22.64
2023-05-19T11:10:46.505Z,23.00
2023-05-19T11:11:54.271Z,23.04
2023-05-19T11:12:58.411Z,22.84
2023-05-19T11:14:11.494Z,22.70
2023-05-19T11:15:16.947Z,22.64
2023-05-19T11:16:23.097Z,22.38
2023-05-19T11:17:25.770Z,21.68
2023-05-19T11:18:28.376Z,22.00
2023-05-19T11:19:36.105Z,22.23
2023-05-19T11:20:39.534Z,21.98
2023-05-19T11:21:55.665Z,21.67
2023-05-19T11:23:09.748Z,21.89
2023-05-19T11:24:38.253Z,22.09
2023-05-19T11:25:52.368Z,21.81
2023-05-19T11:26:55.208Z,22.49
2023-05-19T11:27:58.237Z,21.77
2023-05-19T11:29:00.683Z,21.45
2023-05-19T11:30:15.230Z,21.71
2023-05-19T11:31:19.411Z,21.64
2023-05-19T11:32:22.965Z,21.71
2023-05-19T11:33:29.369Z,21.89
2023-05-19T11:34:32.261Z,21.27
2023-05-19T11:35:36.295Z,21.65
2023-05-19T11:36:40.293Z,21.65
2023-05-19T11:37:43.231Z,21.17
2023-05-19T11:38:45.646Z,21.64
2023-05-19T11:39:47.973Z,21.22
2023-05-19T11:40:52.858Z,21.37
2023-05-19T11:41:56.393Z,21.89
2023-05-19T11:42:59.496Z,22.18
2023-05-19T11:44:04.442Z,21.91
2023-05-19T11:45:07.527Z,21.87
2023-05-19T11:46:10.095Z,22.11
2023-05-19T11:47:14.092Z,22.34
2023-05-19T11:48:16.225Z,22.66
2023-05-19T11:49:19.076Z,22.57
2023-05-19T11:50:21.563Z,21.62
2023-05-19T11:51:24.119Z,21.98
2023-05-19T11:52:30.021Z,21.59
2023-05-19T11:53:36.449Z,21.45
2023-05-19T11:54:39.485Z,22.08
2023-05-19T11:55:44.623Z,21.99
2023-05-19T11:56:46.661Z,22.11
2023-05-19T11:58:05.013Z,21.69
2023-05-19T11:59:11.036Z,21.93
2023-05-19T12:00:14.885Z,21.96
2023-05-19T12:01:16.779Z,22.15
2023-05-19T12:02:22.743Z,21.91
2023-05-19T12:03:29.017Z,22.32
2023-05-19T12:04:32.290Z,22.12
2023-05-19T12:05:41.979Z,22.74
2023-05-19T12:06:45.234Z,22.27
2023-05-19T12:07:50.144Z,22.09
2023-05-19T12:08:53.120Z,22.00
2023-05-19T12:09:57.043Z,22.30
2023-05-19T12:11:00.004Z,22.26
2023-05-19T12:12:03.203Z,21.87
2023-05-19T12:13:08.323Z,22.42
2023-05-19T12:14:11.503Z,21.52
2023-05-19T12:15:14.744Z,22.00
2023-05-19T12:16:20.834Z,21.58
2023-05-19T12:17:25.918Z,21.87
2023-05-19T12:18:34.323Z,21.84
2023-05-19T12:19:36.626Z,21.59
2023-05-19T12:20:39.429Z,21.58
2023-05-19T12:21:41.886Z,21.89
2023-05-19T12:22:44.701Z,21.78
2023-05-19T12:23:47.172Z,21.37
2023-05-19T12:24:50.024Z,21.49
2023-05-19T12:25:52.817Z,21.67
2023-05-19T12:27:05.971Z,22.12
2023-05-19T12:28:08.168Z,22.26
2023-05-19T12:29:10.405Z,22.41
2023-05-19T12:30:13.020Z,21.99
2023-05-19T12:31:15.360Z,22.09
2023-05-19T12:32:17.853Z,22.05
2023-05-19T12:33:22.245Z,22.45
2023-05-19T12:34:24.517Z,22.50
2023-05-19T12:35:33.394Z,22.41
2023-05-19T12:36:35.799Z,23.03
2023-05-19T12:37:42.237Z,23.20
2023-05-19T12:38:45.138Z,23.08
2023-05-19T12:39:49.758Z,23.08
2023-05-19T12:40:51.844Z,23.40
2023-05-19T12:41:54.496Z,23.53
2023-05-19T12:42:59.445Z,23.52
2023-05-19T12:44:01.717Z,23.41
2023-05-19T12:45:05.211Z,23.39
2023-05-19T12:46:13.455Z,23.40
2023-05-19T12:47:16.669Z,23.38
2023-05-19T12:48:22.813Z,23.38
2023-05-19T12:49:24.992Z,23.31
2023-05-19T12:50:31.726Z,23.53
2023-05-19T12:51:33.878Z,23.60
2023-05-19T12:52:43.458Z,23.86
2023-05-19T12:53:46.262Z,23.78
2023-05-19T12:54:48.944Z,23.83
2023-05-19T12:55:54.201Z,23.88
2023-05-19T12:56:58.002Z,23.84
2023-05-19T12:58:00.223Z,23.63
2023-05-19T12:59:02.354Z,23.72
2023-05-19T13:00:07.248Z,23.90
2023-05-19T13:01:19.919Z,23.73
2023-05-19T13:02:22.333Z,23.81
2023-05-19T13:03:24.637Z,23.42
2023-05-19T13:04:27.664Z,23.19
2023-05-19T13:05:36.010Z,23.40
2023-05-19T13:06:38.025Z,23.43
2023-05-19T13:07:40.347Z,23.34
2023-05-19T13:08:42.478Z,23.32
2023-05-19T13:09:44.993Z,23.09
2023-05-19T13:10:48.271Z,23.27
2023-05-19T13:11:54.631Z,23.87
2023-05-19T13:12:57.675Z,23.32
2023-05-19T13:14:00.225Z,23.70
2023-05-19T13:15:02.675Z,23.89
2023-05-19T13:16:07.210Z,23.53
2023-05-19T13:17:09.938Z,24.29
2023-05-19T13:18:14.180Z,24.51
2023-05-19T13:20:28.374Z,24.21
2023-05-19T13:21:31.112Z,24.73
2023-05-19T13:22:33.512Z,24.58
2023-05-19T13:23:35.870Z,24.55
2023-05-19T13:24:38.248Z,24.58
2023-05-19T13:25:41.951Z,24.83
2023-05-19T13:26:44.536Z,24.96
2023-05-19T13:27:47.500Z,25.65
2023-05-19T13:28:49.884Z,25.21
2023-05-19T13:29:52.532Z,25.51
2023-05-19T13:30:55.530Z,25.23
2023-05-19T13:31:59.135Z,25.47
2023-05-19T13:33:03.698Z,25.29
2023-05-19T13:34:05.966Z,25.50
2023-05-19T13:35:09.501Z,25.45
2023-05-19T13:36:11.513Z,25.60
2023-05-19T13:37:13.832Z,26.02
2023-05-19T13:38:15.961Z,26.10
2023-05-19T13:39:18.051Z,26.10
2023-05-19T13:40:20.581Z,25.83
2023-05-19T13:41:26.810Z,25.59
2023-05-19T13:42:28.885Z,25.38
2023-05-19T13:43:31.774Z,25.95
2023-05-19T13:44:33.983Z,25.64
2023-05-19T13:45:36.353Z,25.97
2023-05-19T13:46:45.134Z,26.26
2023-05-19T13:47:48.046Z,26.17
2023-05-19T13:48:50.065Z,25.96
2023-05-19T13:49:52.590Z,25.94
2023-05-19T13:50:55.958Z,25.70
2023-05-19T13:51:58.641Z,25.92
2023-05-19T13:53:00.657Z,25.97